sensor_id;sensor_type;location;lat;lon;timestamp;temperature;humidity
6333;DHT22;3199;49.102;8.856;2022-09-09T00:00:31;15.20;99.90
6333;DHT22;3199;49.102;8.856;2022-09-09T00:03:17;15.30;99.90
6333;DHT22;3199;49.102;8.856;2022-09-09T00:06:05;15.30;99.90
6333;DHT22;3199;49.102;8.856;2022-09-09T00:09:15;15.30;99.90
6333;DHT22;3199;49.102;8.856;2022-09-09T00:12:14;15.30;99.90
6333;DHT22;3199;49.102;8.856;2022-09-09T00:15:05;15.30;99.90
6333;DHT22;3199;49.102;8.856;2022-09-09T00:17:35;15.40;99.90
6333;DHT22;3199;49.102;8.856;2022-09-09T00:23:17;15.40;99.90
6333;DHT22;3199;49.102;8.856;2022-09-09T00:28:18;15.40;99.90
6333;DHT22;3199;49.102;8.856;2022-09-09T00:30:43;15.50;99.90
6333;DHT22;3199;49.102;8.856;2022-09-09T00:33:16;15.60;99.90
6333;DHT22;3199;49.102;8.856;2022-09-09T00:35:56;15.60;99.90
6333;DHT22;3199;49.102;8.856;2022-09-09T00:38:36;15.60;99.90
6333;DHT22;3199;49.102;8.856;2022-09-09T00:41:12;15.60;99.90
6333;DHT22;3199;49.102;8.856;2022-09-09T00:43:41;15.60;99.90
6333;DHT22;3199;49.102;8.856;2022-09-09T00:46:39;15.60;99.90
6333;DHT22;3199;49.102;8.856;2022-09-09T00:54:22;15.60;99.90
6333;DHT22;3199;49.102;8.856;2022-09-09T00:57:03;15.70;99.90
6333;DHT22;3199;49.102;8.856;2022-09-09T00:59:52;15.70;99.90
6333;DHT22;3199;49.102;8.856;2022-09-09T01:02:26;15.70;99.90
6333;DHT22;3199;49.102;8.856;2022-09-09T01:04:53;15.70;99.90
6333;DHT22;3199;49.102;8.856;2022-09-09T01:07:20;15.60;99.90
6333;DHT22;3199;49.102;8.856;2022-09-09T01:09:55;15.70;99.90
6333;DHT22;3199;49.102;8.856;2022-09-09T01:12:43;15.70;99.90
6333;DHT22;3199;49.102;8.856;2022-09-09T01:15:16;15.70;99.90
6333;DHT22;3199;49.102;8.856;2022-09-09T01:17:52;15.80;99.90
6333;DHT22;3199;49.102;8.856;2022-09-09T01:20:34;15.80;99.90
6333;DHT22;3199;49.102;8.856;2022-09-09T01:26:13;15.70;99.90
6333;DHT22;3199;49.102;8.856;2022-09-09T01:28:51;15.70;99.90
6333;DHT22;3199;49.102;8.856;2022-09-09T01:31:28;15.70;99.90
6333;DHT22;3199;49.102;8.856;2022-09-09T01:33:55;15.70;99.90
6333;DHT22;3199;49.102;8.856;2022-09-09T01:37:07;15.70;99.90
6333;DHT22;3199;49.102;8.856;2022-09-09T01:39:13;15.80;99.90
6333;DHT22;3199;49.102;8.856;2022-09-09T01:41:39;15.80;99.90
6333;DHT22;3199;49.102;8.856;2022-09-09T01:44:05;15.80;99.90
6333;DHT22;3199;49.102;8.856;2022-09-09T01:46:31;15.80;99.90
6333;DHT22;3199;49.102;8.856;2022-09-09T01:48:57;15.80;99.90
6333;DHT22;3199;49.102;8.856;2022-09-09T01:51:24;16.00;99.90
6333;DHT22;3199;49.102;8.856;2022-09-09T01:53:50;16.20;99.90
6333;DHT22;3199;49.102;8.856;2022-09-09T01:59:24;16.60;99.90
6333;DHT22;3199;49.102;8.856;2022-09-09T02:04:42;17.20;99.90
6333;DHT22;3199;49.102;8.856;2022-09-09T02:09:59;17.60;99.90
6333;DHT22;3199;49.102;8.856;2022-09-09T02:12:27;17.80;99.90
6333;DHT22;3199;49.102;8.856;2022-09-09T02:15:05;17.80;99.90
6333;DHT22;3199;49.102;8.856;2022-09-09T02:17:36;17.90;99.90
6333;DHT22;3199;49.102;8.856;2022-09-09T02:20:13;18.00;99.90
6333;DHT22;3199;49.102;8.856;2022-09-09T02:22:42;18.10;99.90
6333;DHT22;3199;49.102;8.856;2022-09-09T02:25:11;18.20;99.90
6333;DHT22;3199;49.102;8.856;2022-09-09T02:27:37;18.10;99.90
6333;DHT22;3199;49.102;8.856;2022-09-09T02:30:04;18.10;99.90
6333;DHT22;3199;49.102;8.856;2022-09-09T02:32:32;17.90;99.90
6333;DHT22;3199;49.102;8.856;2022-09-09T02:35:07;17.80;99.90
6333;DHT22;3199;49.102;8.856;2022-09-09T02:37:37;17.80;99.90
6333;DHT22;3199;49.102;8.856;2022-09-09T02:40:04;17.80;99.90
6333;DHT22;3199;49.102;8.856;2022-09-09T02:42:31;18.00;99.90
6333;DHT22;3199;49.102;8.856;2022-09-09T02:44:56;18.10;99.90
6333;DHT22;3199;49.102;8.856;2022-09-09T02:47:34;18.20;99.90
6333;DHT22;3199;49.102;8.856;2022-09-09T02:55:35;18.10;99.90
6333;DHT22;3199;49.102;8.856;2022-09-09T02:58:05;18.00;99.90
6333;DHT22;3199;49.102;8.856;2022-09-09T03:00:32;18.00;99.90
6333;DHT22;3199;49.102;8.856;2022-09-09T03:02:59;17.80;99.90
6333;DHT22;3199;49.102;8.856;2022-09-09T03:05:25;17.70;99.90
6333;DHT22;3199;49.102;8.856;2022-09-09T03:07:51;17.70;99.90
6333;DHT22;3199;49.102;8.856;2022-09-09T03:10:17;17.60;99.90
6333;DHT22;3199;49.102;8.856;2022-09-09T03:12:43;17.50;99.90
6333;DHT22;3199;49.102;8.856;2022-09-09T03:15:09;17.50;99.90
6333;DHT22;3199;49.102;8.856;2022-09-09T03:17:35;17.40;99.90
6333;DHT22;3199;49.102;8.856;2022-09-09T03:20:02;17.40;99.90
6333;DHT22;3199;49.102;8.856;2022-09-09T03:22:28;17.40;99.90
6333;DHT22;3199;49.102;8.856;2022-09-09T03:24:53;17.40;99.90
6333;DHT22;3199;49.102;8.856;2022-09-09T03:27:19;17.40;99.90
6333;DHT22;3199;49.102;8.856;2022-09-09T03:29:45;17.40;99.90
6333;DHT22;3199;49.102;8.856;2022-09-09T03:32:12;17.40;99.90
6333;DHT22;3199;49.102;8.856;2022-09-09T03:34:37;17.30;99.90
6333;DHT22;3199;49.102;8.856;2022-09-09T03:37:05;17.30;99.90
6333;DHT22;3199;49.102;8.856;2022-09-09T03:39:31;17.20;99.90
6333;DHT22;3199;49.102;8.856;2022-09-09T03:41:57;17.00;99.90
6333;DHT22;3199;49.102;8.856;2022-09-09T03:44:22;16.90;99.90
6333;DHT22;3199;49.102;8.856;2022-09-09T03:46:48;16.80;99.90
6333;DHT22;3199;49.102;8.856;2022-09-09T03:49:13;16.70;99.90
6333;DHT22;3199;49.102;8.856;2022-09-09T03:51:39;16.50;99.90
6333;DHT22;3199;49.102;8.856;2022-09-09T03:54:06;16.40;99.90
6333;DHT22;3199;49.102;8.856;2022-09-09T03:56:34;16.30;99.90
6333;DHT22;3199;49.102;8.856;2022-09-09T03:58:59;16.20;99.90
6333;DHT22;3199;49.102;8.856;2022-09-09T04:01:25;16.10;99.90
6333;DHT22;3199;49.102;8.856;2022-09-09T04:03:51;15.90;99.90
6333;DHT22;3199;49.102;8.856;2022-09-09T04:06:18;15.90;99.90
6333;DHT22;3199;49.102;8.856;2022-09-09T04:08:45;15.90;99.90
6333;DHT22;3199;49.102;8.856;2022-09-09T04:11:14;15.80;99.90
6333;DHT22;3199;49.102;8.856;2022-09-09T04:13:40;15.80;99.90
6333;DHT22;3199;49.102;8.856;2022-09-09T04:16:08;15.80;99.90
6333;DHT22;3199;49.102;8.856;2022-09-09T04:18:34;15.70;99.90
6333;DHT22;3199;49.102;8.856;2022-09-09T04:21:00;15.70;99.90
6333;DHT22;3199;49.102;8.856;2022-09-09T04:23:27;15.60;99.90
6333;DHT22;3199;49.102;8.856;2022-09-09T04:25:55;15.60;99.90
6333;DHT22;3199;49.102;8.856;2022-09-09T04:28:24;15.50;99.90
6333;DHT22;3199;49.102;8.856;2022-09-09T04:30:50;15.50;99.90
6333;DHT22;3199;49.102;8.856;2022-09-09T04:33:16;15.50;99.90
6333;DHT22;3199;49.102;8.856;2022-09-09T04:35:50;15.50;99.90
6333;DHT22;3199;49.102;8.856;2022-09-09T04:38:18;15.40;99.90
6333;DHT22;3199;49.102;8.856;2022-09-09T04:40:46;15.50;99.90
6333;DHT22;3199;49.102;8.856;2022-09-09T04:43:12;15.50;99.90
6333;DHT22;3199;49.102;8.856;2022-09-09T04:45:37;15.50;99.90
6333;DHT22;3199;49.102;8.856;2022-09-09T04:48:04;15.50;99.90
6333;DHT22;3199;49.102;8.856;2022-09-09T04:50:30;15.50;99.90
6333;DHT22;3199;49.102;8.856;2022-09-09T04:52:55;15.50;99.90
6333;DHT22;3199;49.102;8.856;2022-09-09T04:55:21;15.50;99.90
6333;DHT22;3199;49.102;8.856;2022-09-09T04:57:46;15.50;99.90
6333;DHT22;3199;49.102;8.856;2022-09-09T05:00:13;15.50;99.90
6333;DHT22;3199;49.102;8.856;2022-09-09T05:02:39;15.50;99.90
6333;DHT22;3199;49.102;8.856;2022-09-09T05:05:06;15.50;99.90
6333;DHT22;3199;49.102;8.856;2022-09-09T05:07:31;15.50;99.90
6333;DHT22;3199;49.102;8.856;2022-09-09T05:09:57;15.50;99.90
6333;DHT22;3199;49.102;8.856;2022-09-09T05:12:23;15.50;99.90
6333;DHT22;3199;49.102;8.856;2022-09-09T05:14:51;15.50;99.90
6333;DHT22;3199;49.102;8.856;2022-09-09T05:17:17;15.40;99.90
6333;DHT22;3199;49.102;8.856;2022-09-09T05:19:43;15.50;99.90
6333;DHT22;3199;49.102;8.856;2022-09-09T05:22:09;15.50;99.90
6333;DHT22;3199;49.102;8.856;2022-09-09T05:24:36;15.50;99.90
6333;DHT22;3199;49.102;8.856;2022-09-09T05:27:02;15.50;99.90
6333;DHT22;3199;49.102;8.856;2022-09-09T05:29:28;15.50;99.90
6333;DHT22;3199;49.102;8.856;2022-09-09T05:31:53;15.60;99.90
6333;DHT22;3199;49.102;8.856;2022-09-09T05:34:19;15.70;99.90
6333;DHT22;3199;49.102;8.856;2022-09-09T05:36:46;15.70;99.90
6333;DHT22;3199;49.102;8.856;2022-09-09T05:39:12;15.80;99.90
6333;DHT22;3199;49.102;8.856;2022-09-09T05:41:37;15.90;99.90
6333;DHT22;3199;49.102;8.856;2022-09-09T05:44:03;15.90;99.90
6333;DHT22;3199;49.102;8.856;2022-09-09T05:46:28;16.00;99.90
6333;DHT22;3199;49.102;8.856;2022-09-09T05:48:55;16.10;99.90
6333;DHT22;3199;49.102;8.856;2022-09-09T05:51:23;16.20;99.90
6333;DHT22;3199;49.102;8.856;2022-09-09T05:53:50;16.30;99.90
6333;DHT22;3199;49.102;8.856;2022-09-09T05:56:22;16.40;99.90
6333;DHT22;3199;49.102;8.856;2022-09-09T05:58:49;16.40;99.90
6333;DHT22;3199;49.102;8.856;2022-09-09T06:01:26;16.50;99.90
6333;DHT22;3199;49.102;8.856;2022-09-09T06:03:53;16.60;99.90
6333;DHT22;3199;49.102;8.856;2022-09-09T06:06:31;16.60;99.90
6333;DHT22;3199;49.102;8.856;2022-09-09T06:09:02;16.60;99.90
6333;DHT22;3199;49.102;8.856;2022-09-09T06:11:30;16.60;99.90
6333;DHT22;3199;49.102;8.856;2022-09-09T06:13:59;16.70;99.90
6333;DHT22;3199;49.102;8.856;2022-09-09T06:16:26;16.80;99.90
6333;DHT22;3199;49.102;8.856;2022-09-09T06:18:56;16.90;99.90
6333;DHT22;3199;49.102;8.856;2022-09-09T06:21:33;16.90;99.90
6333;DHT22;3199;49.102;8.856;2022-09-09T06:23:59;16.90;99.90
6333;DHT22;3199;49.102;8.856;2022-09-09T06:26:27;16.90;99.90
6333;DHT22;3199;49.102;8.856;2022-09-09T06:28:54;17.10;99.90
6333;DHT22;3199;49.102;8.856;2022-09-09T06:31:22;17.70;99.90
6333;DHT22;3199;49.102;8.856;2022-09-09T06:33:49;18.00;99.90
6333;DHT22;3199;49.102;8.856;2022-09-09T06:36:17;18.10;99.90
6333;DHT22;3199;49.102;8.856;2022-09-09T06:38:44;18.10;99.90
6333;DHT22;3199;49.102;8.856;2022-09-09T06:41:10;18.60;99.90
6333;DHT22;3199;49.102;8.856;2022-09-09T06:43:36;19.40;99.90
6333;DHT22;3199;49.102;8.856;2022-09-09T06:46:05;20.50;99.90
6333;DHT22;3199;49.102;8.856;2022-09-09T06:48:31;21.00;99.50
6333;DHT22;3199;49.102;8.856;2022-09-09T06:51:10;20.80;98.90
6333;DHT22;3199;49.102;8.856;2022-09-09T06:53:37;20.40;99.30
6333;DHT22;3199;49.102;8.856;2022-09-09T06:56:25;20.00;99.90
6333;DHT22;3199;49.102;8.856;2022-09-09T06:58:51;19.70;99.90
6333;DHT22;3199;49.102;8.856;2022-09-09T07:01:19;19.40;99.90
6333;DHT22;3199;49.102;8.856;2022-09-09T07:03:47;19.30;99.90
6333;DHT22;3199;49.102;8.856;2022-09-09T07:06:15;19.20;99.90
6333;DHT22;3199;49.102;8.856;2022-09-09T07:08:42;19.20;99.90
6333;DHT22;3199;49.102;8.856;2022-09-09T07:11:09;19.10;99.90
6333;DHT22;3199;49.102;8.856;2022-09-09T07:13:35;19.00;99.90
6333;DHT22;3199;49.102;8.856;2022-09-09T07:16:15;18.90;99.90
6333;DHT22;3199;49.102;8.856;2022-09-09T07:18:41;18.90;99.90
6333;DHT22;3199;49.102;8.856;2022-09-09T07:21:08;19.30;99.90
6333;DHT22;3199;49.102;8.856;2022-09-09T07:23:34;19.30;99.90
6333;DHT22;3199;49.102;8.856;2022-09-09T07:26:02;19.20;99.90
6333;DHT22;3199;49.102;8.856;2022-09-09T07:28:28;19.10;99.90
6333;DHT22;3199;49.102;8.856;2022-09-09T07:31:00;19.10;99.90
6333;DHT22;3199;49.102;8.856;2022-09-09T07:33:29;19.30;99.90
6333;DHT22;3199;49.102;8.856;2022-09-09T07:36:19;20.00;99.90
6333;DHT22;3199;49.102;8.856;2022-09-09T07:38:49;21.50;99.90
6333;DHT22;3199;49.102;8.856;2022-09-09T07:41:19;22.70;99.00
6333;DHT22;3199;49.102;8.856;2022-09-09T07:43:47;23.00;97.40
6333;DHT22;3199;49.102;8.856;2022-09-09T07:46:14;23.10;96.40
6333;DHT22;3199;49.102;8.856;2022-09-09T07:48:48;23.50;96.10
6333;DHT22;3199;49.102;8.856;2022-09-09T07:51:19;23.90;95.00
6333;DHT22;3199;49.102;8.856;2022-09-09T07:53:46;24.30;94.50
6333;DHT22;3199;49.102;8.856;2022-09-09T07:56:15;24.50;92.50
6333;DHT22;3199;49.102;8.856;2022-09-09T07:58:42;24.60;91.60
6333;DHT22;3199;49.102;8.856;2022-09-09T08:01:14;24.80;91.50
6333;DHT22;3199;49.102;8.856;2022-09-09T08:03:40;24.90;91.20
6333;DHT22;3199;49.102;8.856;2022-09-09T08:06:07;24.50;90.30
6333;DHT22;3199;49.102;8.856;2022-09-09T08:08:34;23.90;90.70
6333;DHT22;3199;49.102;8.856;2022-09-09T08:11:14;23.40;91.70
6333;DHT22;3199;49.102;8.856;2022-09-09T08:13:41;23.00;92.90
6333;DHT22;3199;49.102;8.856;2022-09-09T08:16:08;23.10;93.40
6333;DHT22;3199;49.102;8.856;2022-09-09T08:18:35;23.40;92.90
6333;DHT22;3199;49.102;8.856;2022-09-09T08:21:12;23.70;92.40
6333;DHT22;3199;49.102;8.856;2022-09-09T08:23:42;24.10;92.30
6333;DHT22;3199;49.102;8.856;2022-09-09T08:26:13;24.20;92.10
6333;DHT22;3199;49.102;8.856;2022-09-09T08:28:41;24.20;91.80
6333;DHT22;3199;49.102;8.856;2022-09-09T08:31:20;24.50;91.60
6333;DHT22;3199;49.102;8.856;2022-09-09T08:33:47;24.80;91.50
6333;DHT22;3199;49.102;8.856;2022-09-09T08:36:24;25.10;90.90
6333;DHT22;3199;49.102;8.856;2022-09-09T08:38:52;24.80;87.90
6333;DHT22;3199;49.102;8.856;2022-09-09T08:47:09;26.20;84.30
6333;DHT22;3199;49.102;8.856;2022-09-09T08:50:03;25.90;82.70
6333;DHT22;3199;49.102;8.856;2022-09-09T08:52:31;25.60;83.10
6333;DHT22;3199;49.102;8.856;2022-09-09T08:57:39;25.60;81.20
6333;DHT22;3199;49.102;8.856;2022-09-09T09:00:05;25.70;82.60
6333;DHT22;3199;49.102;8.856;2022-09-09T09:02:54;26.30;82.60
6333;DHT22;3199;49.102;8.856;2022-09-09T09:05:47;26.80;78.80
6333;DHT22;3199;49.102;8.856;2022-09-09T09:11:16;26.40;77.50
6333;DHT22;3199;49.102;8.856;2022-09-09T09:16:29;25.60;78.90
6333;DHT22;3199;49.102;8.856;2022-09-09T09:18:57;24.00;77.10
6333;DHT22;3199;49.102;8.856;2022-09-09T09:21:42;23.20;84.80
6333;DHT22;3199;49.102;8.856;2022-09-09T09:24:20;22.40;87.00
6333;DHT22;3199;49.102;8.856;2022-09-09T09:26:48;21.90;90.80
6333;DHT22;3199;49.102;8.856;2022-09-09T09:29:17;21.70;92.10
6333;DHT22;3199;49.102;8.856;2022-09-09T09:31:47;21.80;93.40
6333;DHT22;3199;49.102;8.856;2022-09-09T09:34:13;22.10;92.70
6333;DHT22;3199;49.102;8.856;2022-09-09T09:36:42;22.30;92.80
6333;DHT22;3199;49.102;8.856;2022-09-09T09:39:10;22.40;92.80
6333;DHT22;3199;49.102;8.856;2022-09-09T09:41:38;22.80;92.60
6333;DHT22;3199;49.102;8.856;2022-09-09T09:44:06;23.00;92.90
6333;DHT22;3199;49.102;8.856;2022-09-09T09:46:45;23.00;92.70
6333;DHT22;3199;49.102;8.856;2022-09-09T09:49:10;22.70;92.60
6333;DHT22;3199;49.102;8.856;2022-09-09T09:51:37;22.60;93.40
6333;DHT22;3199;49.102;8.856;2022-09-09T09:56:35;23.00;92.40
6333;DHT22;3199;49.102;8.856;2022-09-09T09:59:01;23.20;91.70
6333;DHT22;3199;49.102;8.856;2022-09-09T10:01:31;23.50;92.00
6333;DHT22;3199;49.102;8.856;2022-09-09T10:04:12;23.80;91.10
6333;DHT22;3199;49.102;8.856;2022-09-09T10:06:39;23.90;91.30
6333;DHT22;3199;49.102;8.856;2022-09-09T10:09:28;24.00;90.10
6333;DHT22;3199;49.102;8.856;2022-09-09T10:12:05;24.00;90.40
6333;DHT22;3199;49.102;8.856;2022-09-09T10:17:15;24.60;90.30
6333;DHT22;3199;49.102;8.856;2022-09-09T10:22:33;25.30;85.60
6333;DHT22;3199;49.102;8.856;2022-09-09T10:28:07;25.10;82.90
6333;DHT22;3199;49.102;8.856;2022-09-09T10:31:14;25.00;82.70
6333;DHT22;3199;49.102;8.856;2022-09-09T10:36:24;24.90;80.10
6333;DHT22;3199;49.102;8.856;2022-09-09T10:39:32;24.80;80.30
6333;DHT22;3199;49.102;8.856;2022-09-09T10:42:14;24.80;81.90
6333;DHT22;3199;49.102;8.856;2022-09-09T10:45:00;25.00;78.70
6333;DHT22;3199;49.102;8.856;2022-09-09T10:50:49;24.70;78.60
6333;DHT22;3199;49.102;8.856;2022-09-09T10:56:09;24.40;82.60
6333;DHT22;3199;49.102;8.856;2022-09-09T10:58:53;24.70;79.40
6333;DHT22;3199;49.102;8.856;2022-09-09T11:01:27;24.80;79.00
6333;DHT22;3199;49.102;8.856;2022-09-09T11:03:58;25.10;78.20
6333;DHT22;3199;49.102;8.856;2022-09-09T11:06:41;24.90;77.40
6333;DHT22;3199;49.102;8.856;2022-09-09T11:09:15;24.80;77.00
6333;DHT22;3199;49.102;8.856;2022-09-09T11:11:54;24.60;77.10
6333;DHT22;3199;49.102;8.856;2022-09-09T11:17:00;24.00;78.00
6333;DHT22;3199;49.102;8.856;2022-09-09T11:19:32;23.90;79.70
6333;DHT22;3199;49.102;8.856;2022-09-09T11:22:15;23.90;80.90
6333;DHT22;3199;49.102;8.856;2022-09-09T11:24:46;24.00;80.60
6333;DHT22;3199;49.102;8.856;2022-09-09T11:27:16;23.80;80.80
6333;DHT22;3199;49.102;8.856;2022-09-09T11:29:45;23.60;81.00
6333;DHT22;3199;49.102;8.856;2022-09-09T11:35:30;23.60;80.60
6333;DHT22;3199;49.102;8.856;2022-09-09T11:38:05;23.70;79.60
6333;DHT22;3199;49.102;8.856;2022-09-09T11:40:35;23.90;78.90
6333;DHT22;3199;49.102;8.856;2022-09-09T11:43:15;23.70;76.60
6333;DHT22;3199;49.102;8.856;2022-09-09T11:45:51;23.30;77.10
6333;DHT22;3199;49.102;8.856;2022-09-09T11:48:37;23.00;77.30
6333;DHT22;3199;49.102;8.856;2022-09-09T11:51:09;22.80;78.30
6333;DHT22;3199;49.102;8.856;2022-09-09T11:54:29;22.70;79.70
6333;DHT22;3199;49.102;8.856;2022-09-09T11:56:45;22.70;81.30
6333;DHT22;3199;49.102;8.856;2022-09-09T11:59:28;22.70;80.70
6333;DHT22;3199;49.102;8.856;2022-09-09T12:02:12;22.60;81.40
6333;DHT22;3199;49.102;8.856;2022-09-09T12:04:44;22.60;82.70
6333;DHT22;3199;49.102;8.856;2022-09-09T12:07:41;22.50;79.80
6333;DHT22;3199;49.102;8.856;2022-09-09T12:12:38;22.60;79.50
6333;DHT22;3199;49.102;8.856;2022-09-09T12:17:44;23.30;78.30
6333;DHT22;3199;49.102;8.856;2022-09-09T12:20:19;23.60;77.50
6333;DHT22;3199;49.102;8.856;2022-09-09T12:28:20;24.20;73.30
6333;DHT22;3199;49.102;8.856;2022-09-09T12:33:50;24.50;72.10
6333;DHT22;3199;49.102;8.856;2022-09-09T12:36:22;24.60;72.10
6333;DHT22;3199;49.102;8.856;2022-09-09T12:38:49;24.80;72.40
6333;DHT22;3199;49.102;8.856;2022-09-09T12:41:24;24.80;71.80
6333;DHT22;3199;49.102;8.856;2022-09-09T12:43:51;24.80;71.20
6333;DHT22;3199;49.102;8.856;2022-09-09T12:46:36;24.80;71.80
6333;DHT22;3199;49.102;8.856;2022-09-09T12:49:03;24.90;71.50
6333;DHT22;3199;49.102;8.856;2022-09-09T12:51:32;25.00;72.20
6333;DHT22;3199;49.102;8.856;2022-09-09T12:53:59;25.10;70.90
6333;DHT22;3199;49.102;8.856;2022-09-09T12:56:32;25.20;71.30
6333;DHT22;3199;49.102;8.856;2022-09-09T12:58:58;25.20;70.80
6333;DHT22;3199;49.102;8.856;2022-09-09T13:01:27;25.10;71.70
6333;DHT22;3199;49.102;8.856;2022-09-09T13:03:54;25.10;71.00
6333;DHT22;3199;49.102;8.856;2022-09-09T13:06:22;24.70;70.40
6333;DHT22;3199;49.102;8.856;2022-09-09T13:08:49;24.60;72.60
6333;DHT22;3199;49.102;8.856;2022-09-09T13:11:37;24.70;72.40
6333;DHT22;3199;49.102;8.856;2022-09-09T13:14:05;24.80;71.70
6333;DHT22;3199;49.102;8.856;2022-09-09T13:16:34;24.50;70.70
6333;DHT22;3199;49.102;8.856;2022-09-09T13:19:02;24.20;70.30
6333;DHT22;3199;49.102;8.856;2022-09-09T13:21:36;23.90;71.10
6333;DHT22;3199;49.102;8.856;2022-09-09T13:24:04;23.50;72.40
6333;DHT22;3199;49.102;8.856;2022-09-09T13:26:33;23.30;74.00
6333;DHT22;3199;49.102;8.856;2022-09-09T13:29:17;23.10;75.10
6333;DHT22;3199;49.102;8.856;2022-09-09T13:31:44;22.90;75.30
6333;DHT22;3199;49.102;8.856;2022-09-09T13:34:31;22.80;75.90
6333;DHT22;3199;49.102;8.856;2022-09-09T13:37:02;22.90;77.30
6333;DHT22;3199;49.102;8.856;2022-09-09T13:39:29;23.10;78.00
6333;DHT22;3199;49.102;8.856;2022-09-09T13:41:55;23.30;77.60
6333;DHT22;3199;49.102;8.856;2022-09-09T13:44:26;23.50;79.70
6333;DHT22;3199;49.102;8.856;2022-09-09T13:47:20;23.60;81.00
6333;DHT22;3199;49.102;8.856;2022-09-09T13:49:46;23.60;81.30
6333;DHT22;3199;49.102;8.856;2022-09-09T13:52:17;23.50;80.80
6333;DHT22;3199;49.102;8.856;2022-09-09T13:54:48;23.40;80.50
6333;DHT22;3199;49.102;8.856;2022-09-09T13:57:19;23.30;79.60
6333;DHT22;3199;49.102;8.856;2022-09-09T13:59:46;23.10;77.00
6333;DHT22;3199;49.102;8.856;2022-09-09T14:02:12;23.00;78.90
6333;DHT22;3199;49.102;8.856;2022-09-09T14:04:38;22.80;80.30
6333;DHT22;3199;49.102;8.856;2022-09-09T14:07:08;22.80;82.70
6333;DHT22;3199;49.102;8.856;2022-09-09T14:09:35;22.90;83.60
6333;DHT22;3199;49.102;8.856;2022-09-09T14:12:01;23.00;83.90
6333;DHT22;3199;49.102;8.856;2022-09-09T14:14:27;23.20;85.50
6333;DHT22;3199;49.102;8.856;2022-09-09T14:16:53;23.50;85.80
6333;DHT22;3199;49.102;8.856;2022-09-09T14:19:18;23.90;85.40
6333;DHT22;3199;49.102;8.856;2022-09-09T14:21:44;24.20;84.80
6333;DHT22;3199;49.102;8.856;2022-09-09T14:24:10;24.40;83.00
6333;DHT22;3199;49.102;8.856;2022-09-09T14:26:35;24.50;82.50
6333;DHT22;3199;49.102;8.856;2022-09-09T14:29:01;24.50;81.70
6333;DHT22;3199;49.102;8.856;2022-09-09T14:31:26;24.50;81.50
6333;DHT22;3199;49.102;8.856;2022-09-09T14:33:52;24.40;82.00
6333;DHT22;3199;49.102;8.856;2022-09-09T14:36:18;24.40;81.10
6333;DHT22;3199;49.102;8.856;2022-09-09T14:38:43;24.10;80.80
6333;DHT22;3199;49.102;8.856;2022-09-09T14:41:10;23.80;80.10
6333;DHT22;3199;49.102;8.856;2022-09-09T14:43:39;23.50;81.20
6333;DHT22;3199;49.102;8.856;2022-09-09T14:46:06;23.10;83.10
6333;DHT22;3199;49.102;8.856;2022-09-09T14:48:32;22.90;84.40
6333;DHT22;3199;49.102;8.856;2022-09-09T14:51:12;22.90;85.10
6333;DHT22;3199;49.102;8.856;2022-09-09T14:53:41;22.90;85.50
6333;DHT22;3199;49.102;8.856;2022-09-09T14:56:12;22.90;85.60
6333;DHT22;3199;49.102;8.856;2022-09-09T14:58:38;22.90;85.90
6333;DHT22;3199;49.102;8.856;2022-09-09T15:01:05;23.00;86.20
6333;DHT22;3199;49.102;8.856;2022-09-09T15:03:31;23.10;86.60
6333;DHT22;3199;49.102;8.856;2022-09-09T15:05:57;23.10;86.70
6333;DHT22;3199;49.102;8.856;2022-09-09T15:08:24;23.10;86.90
6333;DHT22;3199;49.102;8.856;2022-09-09T15:10:50;23.20;87.30
6333;DHT22;3199;49.102;8.856;2022-09-09T15:13:16;23.20;87.70
6333;DHT22;3199;49.102;8.856;2022-09-09T15:15:42;23.10;87.80
6333;DHT22;3199;49.102;8.856;2022-09-09T15:18:08;23.10;88.60
6333;DHT22;3199;49.102;8.856;2022-09-09T15:20:33;22.90;88.20
6333;DHT22;3199;49.102;8.856;2022-09-09T15:23:00;22.50;89.30
6333;DHT22;3199;49.102;8.856;2022-09-09T15:25:26;22.00;90.10
6333;DHT22;3199;49.102;8.856;2022-09-09T15:27:52;21.80;90.50
6333;DHT22;3199;49.102;8.856;2022-09-09T15:30:17;21.80;90.80
6333;DHT22;3199;49.102;8.856;2022-09-09T15:32:43;21.80;91.20
6333;DHT22;3199;49.102;8.856;2022-09-09T15:35:08;21.70;91.20
6333;DHT22;3199;49.102;8.856;2022-09-09T15:37:34;21.70;91.30
6333;DHT22;3199;49.102;8.856;2022-09-09T15:39:59;21.50;91.30
6333;DHT22;3199;49.102;8.856;2022-09-09T15:42:26;21.30;91.80
6333;DHT22;3199;49.102;8.856;2022-09-09T15:44:51;21.20;92.20
6333;DHT22;3199;49.102;8.856;2022-09-09T15:47:17;21.10;92.10
6333;DHT22;3199;49.102;8.856;2022-09-09T15:49:43;21.20;93.00
6333;DHT22;3199;49.102;8.856;2022-09-09T15:52:10;21.10;92.70
6333;DHT22;3199;49.102;8.856;2022-09-09T15:54:36;21.10;93.00
6333;DHT22;3199;49.102;8.856;2022-09-09T15:57:06;21.10;93.30
6333;DHT22;3199;49.102;8.856;2022-09-09T15:59:32;21.00;92.80
6333;DHT22;3199;49.102;8.856;2022-09-09T16:01:59;21.00;93.20
6333;DHT22;3199;49.102;8.856;2022-09-09T16:04:26;20.90;93.00
6333;DHT22;3199;49.102;8.856;2022-09-09T16:06:53;20.80;92.90
6333;DHT22;3199;49.102;8.856;2022-09-09T16:09:20;20.70;92.70
6333;DHT22;3199;49.102;8.856;2022-09-09T16:11:46;20.50;92.90
6333;DHT22;3199;49.102;8.856;2022-09-09T16:14:13;20.50;93.70
6333;DHT22;3199;49.102;8.856;2022-09-09T16:16:40;20.50;94.30
6333;DHT22;3199;49.102;8.856;2022-09-09T16:19:08;20.50;94.00
6333;DHT22;3199;49.102;8.856;2022-09-09T16:21:43;20.40;91.50
6333;DHT22;3199;49.102;8.856;2022-09-09T16:24:12;20.30;91.60
6333;DHT22;3199;49.102;8.856;2022-09-09T16:26:40;20.20;92.20
6333;DHT22;3199;49.102;8.856;2022-09-09T16:29:07;20.10;92.10
6333;DHT22;3199;49.102;8.856;2022-09-09T16:31:34;20.00;92.90
6333;DHT22;3199;49.102;8.856;2022-09-09T16:33:59;20.00;94.20
6333;DHT22;3199;49.102;8.856;2022-09-09T16:36:27;20.10;94.50
6333;DHT22;3199;49.102;8.856;2022-09-09T16:38:56;20.10;94.80
6333;DHT22;3199;49.102;8.856;2022-09-09T16:41:23;20.10;94.70
6333;DHT22;3199;49.102;8.856;2022-09-09T16:44:09;20.20;94.80
6333;DHT22;3199;49.102;8.856;2022-09-09T16:46:40;20.10;94.70
6333;DHT22;3199;49.102;8.856;2022-09-09T16:49:08;20.10;94.70
6333;DHT22;3199;49.102;8.856;2022-09-09T16:51:43;20.20;94.70
6333;DHT22;3199;49.102;8.856;2022-09-09T16:54:10;20.30;94.10
6333;DHT22;3199;49.102;8.856;2022-09-09T16:56:38;20.30;94.00
6333;DHT22;3199;49.102;8.856;2022-09-09T16:59:11;20.30;93.90
6333;DHT22;3199;49.102;8.856;2022-09-09T17:01:39;20.20;93.90
6333;DHT22;3199;49.102;8.856;2022-09-09T17:04:08;20.20;94.00
6333;DHT22;3199;49.102;8.856;2022-09-09T17:06:35;20.20;94.10
6333;DHT22;3199;49.102;8.856;2022-09-09T17:09:12;20.20;93.80
6333;DHT22;3199;49.102;8.856;2022-09-09T17:11:39;20.20;94.00
6333;DHT22;3199;49.102;8.856;2022-09-09T17:14:06;20.30;94.00
6333;DHT22;3199;49.102;8.856;2022-09-09T17:16:33;20.30;93.70
6333;DHT22;3199;49.102;8.856;2022-09-09T17:19:00;20.40;93.40
6333;DHT22;3199;49.102;8.856;2022-09-09T17:21:27;20.30;93.00
6333;DHT22;3199;49.102;8.856;2022-09-09T17:23:54;20.20;93.40
6333;DHT22;3199;49.102;8.856;2022-09-09T17:26:22;20.00;93.80
6333;DHT22;3199;49.102;8.856;2022-09-09T17:28:48;19.80;93.70
6333;DHT22;3199;49.102;8.856;2022-09-09T17:31:15;19.60;94.10
6333;DHT22;3199;49.102;8.856;2022-09-09T17:33:43;19.50;94.50
6333;DHT22;3199;49.102;8.856;2022-09-09T17:36:22;19.30;94.50
6333;DHT22;3199;49.102;8.856;2022-09-09T17:38:48;19.30;95.20
6333;DHT22;3199;49.102;8.856;2022-09-09T17:41:15;19.30;95.40
6333;DHT22;3199;49.102;8.856;2022-09-09T17:43:41;19.40;95.70